Time;durP1;ratioP1;P1;durP2;ratioP2;P2;SDS_P1;SDS_P2;PMS_P1;PMS_P2;Temp;Humidity;BMP_temperature;BMP_pressure;BME280_temperature;BME280_humidity;BME280_pressure;Samples;Min_cycle;Max_cycle;Signal;HPM_P1;HPM_P2
2023/11/02 00:02:58;;;;;;;34.30;13.80;;;;;;;13.10;55.89;98053.86;67945;1274;1016451;-68
2023/11/02 00:06:00;;;;;;;32.60;13.60;;;;;;;13.13;55.99;98054.52;67948;1274;1016352;-68
2023/11/02 00:09:03;;;;;;;31.50;12.30;;;;;;;13.11;55.69;98060.86;68010;1274;1016316;-68
2023/11/02 00:12:07;;;;;;;30.40;12.60;;;;;;;13.11;55.64;98057.34;67986;1274;1016614;-68
2023/11/02 00:15:09;;;;;;;31.30;13.00;;;;;;;13.10;55.66;98059.90;68015;1274;1016442;-67
2023/11/02 00:18:12;;;;;;;28.30;11.60;;;;;;;13.04;55.73;98056.13;67962;1274;1016173;-67
2023/11/02 00:21:15;;;;;;;29.70;12.40;;;;;;;12.96;55.74;98050.31;67965;1274;1016359;-67
2023/11/02 00:24:17;;;;;;;30.20;12.70;;;;;;;12.97;55.80;98048.83;67976;1274;1016288;-68
2023/11/02 00:27:20;;;;;;;30.90;12.50;;;;;;;12.96;55.70;98046.29;67958;1274;1016362;-68
2023/11/02 00:30:22;;;;;;;30.40;12.10;;;;;;;12.94;55.66;98044.70;67960;1274;1016042;-68
2023/11/02 00:33:24;;;;;;;28.70;12.50;;;;;;;12.86;55.69;98043.27;67942;1274;1016200;-69
2023/11/02 00:36:27;;;;;;;28.50;11.70;;;;;;;12.91;55.73;98040.73;67987;1274;1016412;-69
2023/11/02 00:39:29;;;;;;;32.80;12.30;;;;;;;12.98;55.60;98036.66;68001;1274;1016848;-69
2023/11/02 00:42:32;;;;;;;31.80;12.30;;;;;;;13.01;55.51;98038.12;68015;1274;1016422;-69
2023/11/02 00:45:34;;;;;;;29.30;12.10;;;;;;;12.99;55.37;98038.16;67934;1274;1016539;-69
2023/11/02 00:48:36;;;;;;;29.20;12.10;;;;;;;12.88;55.53;98035.17;67918;1274;1016246;-68
2023/11/02 00:51:40;;;;;;;30.60;12.40;;;;;;;12.73;56.08;98038.17;67917;1274;1016435;-68
2023/11/02 00:54:43;;;;;;;33.10;12.20;;;;;;;12.80;56.04;98030.96;67985;1274;1016163;-65
2023/11/02 00:57:45;;;;;;;31.40;12.30;;;;;;;12.86;56.08;98026.38;68011;1274;1016345;-66
2023/11/02 01:00:48;;;;;;;33.10;12.90;;;;;;;12.78;56.23;98026.54;67981;1274;1016163;-67
2023/11/02 01:03:51;;;;;;;30.40;12.50;;;;;;;12.75;56.19;98023.26;67994;1274;1020083;-68
2023/11/02 01:06:53;;;;;;;30.00;12.60;;;;;;;12.65;56.21;98018.11;67963;1274;1016469;-67
2023/11/02 01:09:56;;;;;;;28.90;11.90;;;;;;;12.74;55.85;98009.20;68003;1274;1016275;-68
2023/11/02 01:12:58;;;;;;;28.70;12.40;;;;;;;12.83;55.91;98000.52;67949;1274;1016487;-69
2023/11/02 01:16:01;;;;;;;27.80;11.60;;;;;;;12.77;56.04;97993.08;67775;1274;1016159;-67
2023/11/02 01:19:03;;;;;;;;;;;;;;;12.68;55.90;97987.56;68016;1274;1015981;-66
2023/11/02 01:22:06;;;;;;;30.50;11.80;;;;;;;12.62;56.33;97983.83;67983;1274;1018793;-65
2023/11/02 01:25:08;;;;;;;37.00;16.40;;;;;;;12.59;56.33;97985.16;67967;1274;1016423;-68
2023/11/02 01:28:11;;;;;;;33.60;12.80;;;;;;;12.50;56.70;97978.35;67977;1274;1018479;-68
2023/11/02 01:31:14;;;;;;;31.30;12.60;;;;;;;12.46;56.61;97978.80;68021;1274;1016151;-68
2023/11/02 01:34:17;;;;;;;;;;;;;;;12.51;56.70;97980.23;67951;1274;1016326;-67
2023/11/02 01:37:19;;;;;;;31.90;11.90;;;;;;;12.55;56.67;97974.08;67972;1274;1016394;-69
2023/11/02 01:40:21;;;;;;;33.80;12.50;;;;;;;12.62;56.51;97966.45;68004;1274;1016306;-68
2023/11/02 01:43:24;;;;;;;31.60;12.80;;;;;;;12.58;56.46;97966.47;67978;1274;1016443;-66
2023/11/02 01:46:27;;;;;;;27.50;10.70;;;;;;;12.62;56.38;97961.90;67962;1274;1016397;-68
2023/11/02 01:49:29;;;;;;;30.00;11.70;;;;;;;12.62;56.25;97960.34;67958;1274;1016464;-68
2023/11/02 01:52:32;;;;;;;30.00;11.70;;;;;;;12.62;56.17;97958.72;68026;1274;1016223;-67
2023/11/02 01:55:34;;;;;;;34.40;13.70;;;;;;;12.69;55.95;97953.92;67993;1274;1016439;-69
2023/11/02 01:58:36;;;;;;;30.20;12.00;;;;;;;12.63;56.12;97952.16;68023;1274;1016342;-68
2023/11/02 02:01:39;;;;;;;29.80;11.40;;;;;;;12.60;56.36;97957.38;67992;1274;1015905;-65
2023/11/02 02:04:41;;;;;;;33.40;11.90;;;;;;;12.59;56.25;97955.48;67967;1274;1016412;-66
2023/11/02 02:07:44;;;;;;;29.30;11.30;;;;;;;12.66;56.13;97950.71;67975;1274;1016465;-68
2023/11/02 02:10:46;;;;;;;27.00;10.50;;;;;;;12.55;56.20;97943.88;68015;1274;1016234;-65
2023/11/02 02:13:48;;;;;;;31.90;11.00;;;;;;;12.50;56.26;97937.80;68039;1274;1016471;-68
2023/11/02 02:16:51;;;;;;;30.10;10.60;;;;;;;12.53;56.07;97933.15;67985;1274;1016336;-66
2023/11/02 02:19:53;;;;;;;26.70;11.00;;;;;;;12.56;56.09;97930.48;67946;1274;1016516;-66
2023/11/02 02:22:56;;;;;;;27.80;11.40;;;;;;;12.47;56.38;97930.53;68009;1274;1016416;-68
2023/11/02 02:25:58;;;;;;;31.30;11.30;;;;;;;12.53;56.40;97932.13;67943;1274;1017704;-68
2023/11/02 02:29:01;;;;;;;28.20;11.40;;;;;;;12.64;55.93;97933.36;67996;1274;1016414;-67
2023/11/02 02:32:03;;;;;;;30.00;11.00;;;;;;;12.69;55.99;97928.41;68043;1274;1016980;-68
2023/11/02 02:35:05;;;;;;;26.60;10.60;;;;;;;12.67;55.86;97927.59;67980;1274;1016154;-66
2023/11/02 02:38:08;;;;;;;28.60;10.70;;;;;;;12.62;56.16;97925.29;67950;1274;1016703;-69
2023/11/02 02:41:10;;;;;;;25.90;10.30;;;;;;;12.45;56.59;97920.38;67969;1274;1016408;-64
2023/11/02 02:44:13;;;;;;;28.80;11.10;;;;;;;12.47;56.30;97919.32;67976;1274;1016147;-66
2023/11/02 02:47:15;;;;;;;24.90;9.60;;;;;;;12.50;56.11;97924.13;68017;1274;1016154;-69
2023/11/02 02:50:18;;;;;;;27.70;10.20;;;;;;;12.50;56.24;97924.91;67943;1274;1016149;-65
2023/11/02 02:53:20;;;;;;;27.20;10.10;;;;;;;12.54;56.32;97919.45;67976;1274;1016223;-67
2023/11/02 02:56:23;;;;;;;26.30;10.70;;;;;;;12.55;56.18;97913.92;67994;1274;1015635;-69
2023/11/02 02:59:25;;;;;;;27.50;10.60;;;;;;;12.55;56.24;97913.20;67953;1274;1016247;-67
2023/11/02 03:02:28;;;;;;;24.30;9.80;;;;;;;12.54;56.30;97905.60;67964;1274;1016419;-69
2023/11/02 03:05:30;;;;;;;28.60;10.80;;;;;;;12.51;56.45;97906.38;68010;1274;1016386;-68
2023/11/02 03:08:33;;;;;;;27.30;9.90;;;;;;;12.52;56.40;97901.58;68026;1274;1016305;-68
2023/11/02 03:11:35;;;;;;;27.30;10.10;;;;;;;12.57;56.45;97902.75;68030;1274;1016182;-69
2023/11/02 03:14:39;;;;;;;25.60;9.70;;;;;;;12.58;56.30;97901.56;67941;1274;1016397;-69
2023/11/02 03:17:41;;;;;;;25.20;9.70;;;;;;;12.52;56.48;97898.25;67929;1274;1016459;-69
2023/11/02 03:20:44;;;;;;;25.80;9.80;;;;;;;12.37;56.61;97899.23;67934;1275;1015936;-69
2023/11/02 03:23:46;;;;;;;25.90;9.80;;;;;;;12.30;56.79;97898.05;67905;1274;1016735;-68
2023/11/02 03:26:50;;;;;;;25.70;9.30;;;;;;;12.36;57.01;97901.98;67933;1274;1016677;-67
2023/11/02 03:29:52;;;;;;;23.80;9.00;;;;;;;12.47;56.78;97899.16;67944;1274;1016388;-68
2023/11/02 03:32:55;;;;;;;24.10;9.50;;;;;;;12.55;56.39;97899.02;67968;1274;1016212;-69
2023/11/02 03:35:57;;;;;;;26.40;8.90;;;;;;;12.42;56.84;97894.50;68021;1274;1016060;-68
2023/11/02 03:38:59;;;;;;;26.50;9.40;;;;;;;12.50;56.88;97889.65;67971;1274;1016547;-69
2023/11/02 03:42:03;;;;;;;22.80;8.50;;;;;;;12.43;56.86;97884.89;67960;1274;1016473;-68
2023/11/02 03:45:05;;;;;;;24.20;9.00;;;;;;;12.39;56.97;97881.75;68024;1274;1016533;-69
2023/11/02 03:48:08;;;;;;;23.60;8.60;;;;;;;12.34;57.13;97875.88;68007;1274;1015852;-67
2023/11/02 03:51:10;;;;;;;26.60;9.20;;;;;;;12.29;57.11;97875.79;67938;1274;1016452;-68
2023/11/02 03:54:13;;;;;;;;;;;;;;;12.28;57.25;97873.38;67972;1274;1016500;-64
2023/11/02 03:57:15;;;;;;;25.80;9.20;;;;;;;12.27;57.59;97873.81;68027;1274;1019422;-69
2023/11/02 04:00:18;;;;;;;27.30;8.70;;;;;;;12.29;57.50;97871.17;68009;1274;1016109;-68
2023/11/02 04:03:20;;;;;;;23.80;8.70;;;;;;;12.23;57.64;97871.84;67956;1274;1016857;-69
2023/11/02 04:06:23;;;;;;;24.50;8.10;;;;;;;12.34;57.44;97868.68;67960;1274;1019274;-68
2023/11/02 04:09:25;;;;;;;23.70;8.00;;;;;;;12.31;57.49;97864.73;68007;1274;1016032;-68
2023/11/02 04:12:27;;;;;;;24.20;8.40;;;;;;;12.41;57.23;97858.27;67979;1274;1016178;-69
2023/11/02 04:15:30;;;;;;;25.90;8.50;;;;;;;12.44;57.53;97856.21;68008;1274;1016505;-68
2023/11/02 04:18:32;;;;;;;23.70;8.20;;;;;;;12.36;57.60;97850.23;67964;1274;1016128;-68
2023/11/02 04:21:34;;;;;;;23.60;7.80;;;;;;;12.36;57.59;97846.58;68002;1274;1016204;-69
2023/11/02 04:24:37;;;;;;;21.40;7.90;;;;;;;12.38;57.62;97845.56;67966;1274;1016325;-66
2023/11/02 04:27:39;;;;;;;24.20;8.20;;;;;;;12.34;57.64;97839.78;67979;1274;1016354;-67
2023/11/02 04:30:42;;;;;;;24.20;8.40;;;;;;;12.35;57.45;97840.20;67996;1275;1016465;-67
2023/11/02 04:33:45;;;;;;;26.80;9.70;;;;;;;12.51;57.08;97837.05;67984;1274;1016396;-68
2023/11/02 04:36:47;;;;;;;21.90;7.70;;;;;;;12.57;56.80;97828.70;67966;1274;1016435;-68
2023/11/02 04:39:50;;;;;;;22.90;7.40;;;;;;;12.46;57.14;97823.36;67979;1274;1019574;-69
2023/11/02 04:42:52;;;;;;;22.20;7.20;;;;;;;12.42;57.02;97819.96;68016;1274;1016207;-68
2023/11/02 04:45:54;;;;;;;24.80;7.70;;;;;;;12.43;57.20;97818.83;68000;1275;1016226;-68
2023/11/02 04:48:57;;;;;;;24.50;7.30;;;;;;;12.45;57.21;97818.35;67931;1275;1016467;-68
2023/11/02 04:52:02;;;;;;;23.90;8.00;;;;;;;12.47;57.26;97815.66;68011;1274;1016464;-67
2023/11/02 04:55:05;;;;;;;20.40;7.40;;;;;;;12.42;57.34;97812.99;68008;1274;1016490;-69
2023/11/02 04:58:07;;;;;;;23.60;8.40;;;;;;;12.44;57.24;97810.31;67988;1274;1017424;-66
2023/11/02 05:01:10;;;;;;;22.70;7.80;;;;;;;12.48;57.10;97803.72;68012;1274;1016354;-68
2023/11/02 05:04:14;;;;;;;23.90;7.50;;;;;;;12.50;57.07;97808.98;68033;1274;1016473;-69
2023/11/02 05:07:17;;;;;;;21.90;6.90;;;;;;;12.55;56.92;97806.93;67965;1274;1018310;-68
2023/11/02 05:10:19;;;;;;;24.40;8.10;;;;;;;12.51;56.80;97804.13;67957;1274;1016666;-69
2023/11/02 05:13:22;;;;;;;27.60;8.00;;;;;;;12.49;56.81;97805.16;67957;1274;1016398;-69
2023/11/02 05:16:24;;;;;;;23.40;7.60;;;;;;;12.63;56.48;97802.60;68007;1274;1016010;-68
2023/11/02 05:19:27;;;;;;;22.40;7.60;;;;;;;12.63;56.67;97800.65;68020;1274;1016492;-68
2023/11/02 05:22:29;;;;;;;;;;;;;;;12.63;56.53;97797.31;67977;1274;1016438;-67
2023/11/02 05:25:33;;;;;;;22.20;7.70;;;;;;;12.71;56.52;97795.30;67961;1275;1016467;-62
2023/11/02 05:28:35;;;;;;;23.10;7.90;;;;;;;12.70;56.56;97789.23;68021;1274;1016147;-67
2023/11/02 05:31:37;;;;;;;29.10;8.10;;;;;;;12.78;56.36;97784.11;67965;1275;1017409;-66
2023/11/02 05:34:40;;;;;;;22.10;7.50;;;;;;;12.84;56.21;97780.44;67984;1274;1016455;-68
2023/11/02 05:37:42;;;;;;;21.00;7.30;;;;;;;12.83;56.26;97775.65;68000;1274;1016362;-68
2023/11/02 05:40:45;;;;;;;22.10;7.10;;;;;;;12.80;56.43;97778.88;68013;1274;1018794;-68
2023/11/02 05:43:47;;;;;;;22.20;7.70;;;;;;;12.99;56.01;97782.45;67999;1275;1016024;-68
2023/11/02 05:46:50;;;;;;;21.00;6.70;;;;;;;13.04;56.06;97775.88;67977;1274;1016857;-67
2023/11/02 05:49:52;;;;;;;26.80;8.60;;;;;;;13.08;55.99;97766.20;67992;1274;1016406;-67
2023/11/02 05:52:55;;;;;;;21.80;7.80;;;;;;;13.17;56.02;97756.02;68007;1274;1016397;-68
2023/11/02 05:55:57;;;;;;;23.80;7.70;;;;;;;13.20;55.86;97762.02;67992;1274;1016447;-69
2023/11/02 05:59:00;;;;;;;20.40;6.90;;;;;;;13.16;56.15;97756.92;67973;1274;1016178;-67
2023/11/02 06:02:02;;;;;;;31.60;8.00;;;;;;;13.22;55.95;97755.50;68018;1274;1015931;-64
2023/11/02 06:05:05;;;;;;;21.60;6.90;;;;;;;13.28;56.01;97737.76;67999;1274;1016326;-68
2023/11/02 06:08:07;;;;;;;21.30;7.30;;;;;;;13.38;56.03;97735.02;68005;1274;1016317;-64
2023/11/02 06:11:10;;;;;;;27.80;8.90;;;;;;;13.51;55.96;97739.27;67959;1275;1015846;-59
2023/11/02 06:14:12;;;;;;;23.80;7.30;;;;;;;13.47;56.14;97733.36;67969;1274;1016613;-67
2023/11/02 06:17:14;;;;;;;24.80;7.10;;;;;;;13.62;55.80;97738.29;68028;1274;1016361;-69
2023/11/02 06:20:17;;;;;;;28.80;8.90;;;;;;;13.60;56.08;97740.81;68011;1274;1016262;-68
2023/11/02 06:23:20;;;;;;;23.30;7.50;;;;;;;13.63;56.28;97731.59;68035;1274;1016031;-68
2023/11/02 06:26:22;;;;;;;22.20;7.30;;;;;;;13.77;56.05;97719.91;67964;1274;1015949;-69
2023/11/02 06:29:25;;;;;;;20.90;6.90;;;;;;;13.82;56.21;97724.40;68028;1274;1016441;-67
2023/11/02 06:32:27;;;;;;;18.80;6.10;;;;;;;13.98;56.05;97731.89;68015;1274;1016449;-63
2023/11/02 06:35:30;;;;;;;20.60;6.50;;;;;;;14.08;56.05;97724.61;68009;1274;1016348;-67
2023/11/02 06:38:33;;;;;;;19.90;6.00;;;;;;;14.11;56.01;97721.71;67964;1275;1016466;-68
2023/11/02 06:41:36;;;;;;;20.80;6.30;;;;;;;14.23;56.11;97716.02;68004;1274;1016437;-69
2023/11/02 06:44:43;;;;;;;19.40;5.90;;;;;;;14.29;56.00;97715.83;67976;1274;1016345;-66
2023/11/02 06:47:45;;;;;;;22.30;6.30;;;;;;;14.29;56.15;97716.30;68030;1274;1016478;-67
2023/11/02 06:50:50;;;;;;;20.10;6.40;;;;;;;14.41;55.96;97714.34;68005;1275;1016557;-67
2023/11/02 06:53:52;;;;;;;20.30;5.70;;;;;;;14.30;56.21;97706.80;68013;1274;1016873;-69
2023/11/02 06:56:55;;;;;;;19.80;5.80;;;;;;;14.34;56.21;97703.90;67931;1274;1016367;-68
2023/11/02 06:59:57;;;;;;;20.30;6.00;;;;;;;14.51;55.88;97696.23;67949;1274;1016413;-64
2023/11/02 07:02:59;;;;;;;18.30;5.60;;;;;;;14.58;55.95;97696.53;67947;1274;1018207;-62
2023/11/02 07:06:02;;;;;;;19.30;5.70;;;;;;;14.68;55.70;97688.96;67963;1274;1016414;-66
2023/11/02 07:09:06;;;;;;;20.80;6.50;;;;;;;14.67;55.67;97698.21;67937;1274;1016457;-68
2023/11/02 07:12:12;;;;;;;17.80;5.40;;;;;;;14.77;55.71;97699.56;67973;1274;1016416;-68
2023/11/02 07:15:14;;;;;;;22.50;6.30;;;;;;;15.12;55.24;97692.14;68012;1274;1015995;-66
2023/11/02 07:18:17;;;;;;;24.90;6.50;;;;;;;15.29;55.00;97681.80;67983;1274;1016300;-69
2023/11/02 07:21:19;;;;;;;21.30;5.70;;;;;;;15.29;54.81;97683.78;67959;1274;1016386;-70
2023/11/02 07:24:21;;;;;;;16.50;5.30;;;;;;;15.31;54.69;97689.22;67911;1274;1016813;-69
2023/11/02 07:27:24;;;;;;;17.90;5.30;;;;;;;15.28;54.86;97687.09;67989;1275;1016287;-64
2023/11/02 07:30:26;;;;;;;18.30;5.70;;;;;;;15.18;54.92;97682.18;68001;1274;1016351;-68
2023/11/02 07:33:29;;;;;;;18.20;5.50;;;;;;;15.27;54.84;97679.71;67956;1274;1016307;-69
2023/11/02 07:36:31;;;;;;;19.70;6.90;;;;;;;15.37;54.70;97676.83;67985;1274;1016878;-69
2023/11/02 07:39:35;;;;;;;22.60;5.80;;;;;;;15.45;54.64;97679.38;67971;1274;1016463;-68
2023/11/02 07:42:38;;;;;;;17.70;5.70;;;;;;;15.59;54.32;97675.52;67972;1274;1016505;-68
2023/11/02 07:45:40;;;;;;;20.00;6.40;;;;;;;15.52;54.12;97663.04;68016;1274;1016731;-70
2023/11/02 07:48:43;;;;;;;22.20;6.50;;;;;;;15.52;54.13;97651.31;68013;1275;1016552;-69
2023/11/02 07:51:45;;;;;;;20.10;6.50;;;;;;;15.50;54.26;97652.79;67959;1274;1016236;-68
2023/11/02 07:54:48;;;;;;;21.20;6.30;;;;;;;15.55;54.23;97653.25;68019;1274;1016509;-69
2023/11/02 07:57:51;;;;;;;19.70;6.40;;;;;;;15.57;54.05;97650.46;67977;1274;1016511;-67
2023/11/02 08:00:53;;;;;;;22.80;7.00;;;;;;;15.56;54.06;97645.64;67983;1274;1016610;-67
2023/11/02 08:03:56;;;;;;;22.00;7.10;;;;;;;15.53;54.41;97641.77;67995;1274;1016463;-69
2023/11/02 08:06:58;;;;;;;22.90;7.50;;;;;;;15.63;54.27;97634.12;68005;1274;1016354;-67
2023/11/02 08:10:01;;;;;;;;;;;;;;;15.77;54.40;97620.04;68002;1275;1016446;-65
2023/11/02 08:13:04;;;;;;;22.20;8.20;;;;;;;15.89;54.37;97614.38;67950;1275;1016323;-68
2023/11/02 08:16:06;;;;;;;22.00;6.60;;;;;;;16.14;54.30;97608.80;67993;1274;1016707;-69
2023/11/02 08:19:09;;;;;;;19.20;5.90;;;;;;;16.45;54.15;97601.84;68000;1274;1016176;-65
2023/11/02 08:22:11;;;;;;;20.70;6.20;;;;;;;16.71;54.08;97599.41;67965;1275;1017987;-69
2023/11/02 08:25:14;;;;;;;19.70;5.40;;;;;;;16.92;53.65;97597.52;67930;1274;1016431;-64
2023/11/02 08:28:17;;;;;;;20.20;6.30;;;;;;;17.20;53.63;97594.92;68036;1274;1016383;-68
2023/11/02 08:31:19;;;;;;;19.90;5.70;;;;;;;17.47;53.28;97592.73;67976;1274;1016507;-68
2023/11/02 08:34:22;;;;;;;22.10;6.20;;;;;;;17.70;53.64;97588.45;67961;1274;1016150;-70
2023/11/02 08:37:24;;;;;;;19.70;6.20;;;;;;;18.01;53.55;97581.06;67992;1274;1016611;-64
2023/11/02 08:40:26;;;;;;;18.10;4.90;;;;;;;18.27;52.63;97571.25;68002;1274;1016310;-69
2023/11/02 08:43:29;;;;;;;22.90;5.80;;;;;;;18.46;52.58;97562.74;67990;1275;1016213;-67
2023/11/02 08:46:31;;;;;;;;;;;;;;;18.71;51.92;97558.29;68032;1275;1016454;-69
2023/11/02 08:49:36;;;;;;;23.60;5.80;;;;;;;18.91;51.90;97551.88;67948;1275;1016491;-69
2023/11/02 08:52:38;;;;;;;18.10;4.60;;;;;;;19.12;51.29;97545.29;67969;1274;1015992;-70
2023/11/02 08:55:41;;;;;;;;;;;;;;;19.33;51.22;97546.70;68041;1274;1016460;-69
2023/11/02 08:58:43;;;;;;;19.50;5.50;;;;;;;19.50;50.09;97547.20;67997;1274;1016399;-69
2023/11/02 09:01:47;;;;;;;17.40;4.70;;;;;;;19.69;50.18;97546.91;67939;1274;1016182;-66
2023/11/02 09:04:49;;;;;;;16.90;4.30;;;;;;;19.90;49.80;97545.30;68034;1274;1016498;-65
2023/11/02 09:07:52;;;;;;;17.80;4.60;;;;;;;20.06;49.82;97541.98;67983;1274;1017675;-67
2023/11/02 09:10:54;;;;;;;18.50;4.90;;;;;;;20.17;49.47;97537.83;67950;1274;1016438;-67
2023/11/02 09:13:56;;;;;;;18.90;5.20;;;;;;;20.33;48.99;97533.86;67946;1251;1016224;-67
2023/11/02 09:16:59;;;;;;;17.20;4.40;;;;;;;20.39;48.63;97537.90;67989;1274;1016576;-66
2023/11/02 09:20:04;;;;;;;22.40;6.20;;;;;;;20.43;48.64;97531.45;67954;1275;1015911;-68
2023/11/02 09:23:07;;;;;;;20.50;5.60;;;;;;;20.44;48.64;97522.89;67995;1274;1016439;-67
2023/11/02 09:26:09;;;;;;;20.20;6.10;;;;;;;20.65;48.46;97516.10;68036;1274;1016114;-68
2023/11/02 09:29:12;;;;;;;17.70;4.30;;;;;;;20.72;48.06;97513.65;68020;1274;1018212;-67
2023/11/02 09:32:14;;;;;;;21.90;4.80;;;;;;;20.75;47.31;97506.80;67924;1274;1016369;-66
2023/11/02 09:35:17;;;;;;;14.80;3.90;;;;;;;20.65;47.38;97509.06;67950;1274;1016426;-67
2023/11/02 09:38:20;;;;;;;17.50;4.40;;;;;;;20.65;47.47;97511.73;68011;1274;1016312;-67
2023/11/02 09:41:22;;;;;;;13.90;3.60;;;;;;;20.70;48.07;97509.27;67998;1274;1016364;-64
2023/11/02 09:44:25;;;;;;;13.10;3.80;;;;;;;20.86;47.13;97502.80;67944;1274;1016378;-68
2023/11/02 09:47:27;;;;;;;11.30;3.70;;;;;;;20.91;46.65;97502.02;67988;1274;1016481;-68
2023/11/02 09:50:30;;;;;;;;;;;;;;;21.06;46.36;97501.24;68028;1274;1016504;-68
2023/11/02 09:53:32;;;;;;;14.00;4.00;;;;;;;21.24;46.39;97494.20;68011;1274;1017673;-66
2023/11/02 09:56:35;;;;;;;;;;;;;;;21.32;46.28;97486.16;67926;1274;1015936;-67
2023/11/02 09:59:42;;;;;;;13.70;3.50;;;;;;;21.49;46.20;97484.81;67968;1274;1016360;-67
2023/11/02 10:02:44;;;;;;;15.90;3.90;;;;;;;21.55;45.21;97478.50;67990;1274;1019493;-69
2023/11/02 10:05:47;;;;;;;14.70;3.70;;;;;;;21.71;45.47;97474.49;67957;1275;1016504;-68
2023/11/02 10:08:49;;;;;;;;;;;;;;;21.76;45.19;97469.44;67986;1274;1016407;-68
2023/11/02 10:11:52;;;;;;;15.70;3.60;;;;;;;21.81;45.20;97466.65;67993;1275;1016264;-67
2023/11/02 10:14:54;;;;;;;;;;;;;;;21.85;44.35;97468.48;68043;1274;1016467;-67
2023/11/02 10:17:56;;;;;;;13.50;3.30;;;;;;;21.85;44.90;97459.36;67983;1274;1016182;-67
2023/11/02 10:20:59;;;;;;;14.50;3.70;;;;;;;21.83;44.88;97454.10;67953;1274;1016466;-68
2023/11/02 10:24:02;;;;;;;14.40;3.60;;;;;;;21.94;45.15;97452.41;67945;1274;1016206;-68
2023/11/02 10:27:05;;;;;;;18.60;4.20;;;;;;;22.12;44.58;97446.64;68000;1274;1016036;-67
2023/11/02 10:30:07;;;;;;;15.80;4.00;;;;;;;22.29;44.53;97444.14;67942;1274;1016135;-68
2023/11/02 10:33:10;;;;;;;17.50;3.90;;;;;;;22.46;44.84;97438.65;68023;1274;1016800;-68
2023/11/02 10:36:12;;;;;;;13.40;3.20;;;;;;;22.71;44.03;97429.10;67985;1274;1016439;-67
2023/11/02 10:39:15;;;;;;;;;;;;;;;22.66;43.74;97420.00;67934;1274;1017195;-68
2023/11/02 10:42:17;;;;;;;12.50;3.30;;;;;;;22.64;43.55;97410.64;67908;1274;1016288;-68
2023/11/02 10:45:20;;;;;;;;;;;;;;;22.60;43.55;97406.73;67957;1274;1018348;-66
2023/11/02 10:48:22;;;;;;;10.70;2.80;;;;;;;22.53;43.64;97401.92;67990;1274;1016460;-67
2023/11/02 10:51:25;;;;;;;12.60;3.00;;;;;;;22.66;43.62;97392.17;67980;1274;1018006;-68
2023/11/02 10:54:27;;;;;;;;;;;;;;;22.79;43.12;97387.86;67954;1274;1016386;-68
2023/11/02 10:57:30;;;;;;;10.70;2.60;;;;;;;22.97;43.15;97391.09;67988;1274;1016441;-67
2023/11/02 11:00:32;;;;;;;;;;;;;;;23.04;43.33;97389.44;68001;1274;1016128;-61
2023/11/02 11:03:36;;;;;;;10.40;3.00;;;;;;;23.12;43.10;97388.30;67963;1274;1016414;-68
2023/11/02 11:06:38;;;;;;;9.50;2.80;;;;;;;23.16;42.66;97385.85;68004;1274;1016467;-68
2023/11/02 11:09:41;;;;;;;9.70;2.60;;;;;;;23.19;42.30;97380.34;67952;1274;1016349;-66
2023/11/02 11:12:44;;;;;;;10.50;2.90;;;;;;;23.36;43.06;97376.02;67959;1274;1019488;-67
2023/11/02 11:15:46;;;;;;;10.70;2.70;;;;;;;23.55;42.51;97375.11;67989;1274;1016330;-66
2023/11/02 11:18:50;;;;;;;;;;;;;;;23.63;42.09;97366.03;67980;1274;1019690;-67
2023/11/02 11:21:52;;;;;;;9.70;2.80;;;;;;;23.77;42.62;97366.33;67942;1274;1016439;-67
2023/11/02 11:24:55;;;;;;;14.30;3.20;;;;;;;23.95;42.02;97365.45;67909;1274;1016110;-67
2023/11/02 11:27:58;;;;;;;10.60;3.20;;;;;;;23.95;42.12;97368.70;67966;1274;1016281;-68
2023/11/02 11:31:01;;;;;;;10.60;2.70;;;;;;;23.98;41.59;97363.20;67978;1274;1016214;-67
2023/11/02 11:34:03;;;;;;;12.70;2.80;;;;;;;24.07;41.79;97358.77;67972;1274;1016396;-68
2023/11/02 11:37:06;;;;;;;9.30;2.50;;;;;;;24.06;41.04;97349.10;67957;1274;1016393;-62
2023/11/02 11:40:10;;;;;;;11.20;2.90;;;;;;;24.14;41.54;97354.52;67988;1274;1016219;-67
2023/11/02 11:43:15;;;;;;;9.80;2.50;;;;;;;24.32;41.23;97351.67;67985;1274;1018720;-68
2023/11/02 11:46:18;;;;;;;8.30;2.40;;;;;;;24.58;41.09;97344.60;67949;1274;1016406;-68
2023/11/02 11:49:20;;;;;;;8.00;2.20;;;;;;;24.87;40.79;97341.33;67957;1274;1016469;-68
2023/11/02 11:52:23;;;;;;;8.20;2.10;;;;;;;24.99;40.57;97332.97;67999;1274;1016487;-67
2023/11/02 11:55:25;;;;;;;;;;;;;;;24.89;40.35;97331.37;67989;1274;1016499;-68
2023/11/02 11:58:28;;;;;;;10.60;2.50;;;;;;;24.83;40.36;97323.73;67972;1274;1016444;-68
2023/11/02 12:01:30;;;;;;;9.10;2.10;;;;;;;24.73;40.21;97319.95;67965;1274;1016754;-68
2023/11/02 12:04:33;;;;;;;7.40;2.00;;;;;;;24.72;40.35;97312.45;68025;1274;1016293;-68
2023/11/02 12:07:36;;;;;;;7.20;2.10;;;;;;;24.86;40.21;97300.88;68001;1274;1016369;-68
2023/11/02 12:10:39;;;;;;;7.10;1.70;;;;;;;24.85;39.67;97298.66;67978;1274;1015885;-68
2023/11/02 12:13:42;;;;;;;8.80;1.90;;;;;;;24.75;39.95;97292.38;68020;1274;1016178;-68
2023/11/02 12:16:44;;;;;;;11.20;2.10;;;;;;;24.73;39.02;97286.05;67968;1274;1016115;-67
2023/11/02 12:19:47;;;;;;;11.00;2.20;;;;;;;24.80;39.16;97290.18;67962;1274;1016390;-67
2023/11/02 12:22:50;;;;;;;8.20;2.20;;;;;;;24.77;38.31;97279.08;67954;1274;1016459;-68
2023/11/02 12:25:52;;;;;;;16.10;4.00;;;;;;;24.86;38.81;97272.59;67962;1274;1016421;-68
2023/11/02 12:28:56;;;;;;;10.90;2.70;;;;;;;24.85;38.49;97267.10;67956;1274;1016154;-68
2023/11/02 12:31:58;;;;;;;15.90;3.60;;;;;;;24.78;38.59;97262.94;67970;1274;1019727;-68
2023/11/02 12:35:01;;;;;;;6.50;2.00;;;;;;;24.73;38.75;97259.08;67976;1274;1018015;-68
2023/11/02 12:38:07;;;;;;;9.30;2.30;;;;;;;24.76;38.14;97247.46;67976;1274;1016441;-68
2023/11/02 12:41:09;;;;;;;10.80;2.70;;;;;;;24.99;38.35;97242.66;67976;1274;1016395;-68
2023/11/02 12:44:12;;;;;;;10.00;2.50;;;;;;;24.89;38.08;97238.93;68005;1274;1016153;-68
2023/11/02 12:47:15;;;;;;;11.30;2.40;;;;;;;24.61;38.90;97238.08;67938;1274;1016251;-68
2023/11/02 12:50:17;;;;;;;;;;;;;;;24.60;38.90;97232.19;67960;1274;1018733;-68
2023/11/02 12:53:20;;;;;;;7.00;1.80;;;;;;;24.73;38.61;97224.40;67990;1274;1016349;-68
2023/11/02 12:56:23;;;;;;;10.00;2.00;;;;;;;24.84;38.41;97217.64;68008;1274;1016447;-68
2023/11/02 12:59:26;;;;;;;13.00;2.20;;;;;;;24.67;38.27;97216.28;67967;1274;1016246;-68
2023/11/02 13:02:28;;;;;;;8.00;2.30;;;;;;;24.63;38.67;97218.52;68001;1274;1016495;-68
2023/11/02 13:05:30;;;;;;;8.60;2.40;;;;;;;24.79;38.66;97215.46;67990;1274;1016519;-68
2023/11/02 13:08:33;;;;;;;9.70;2.10;;;;;;;24.83;38.60;97204.08;67947;1274;1016333;-67
2023/11/02 13:11:36;;;;;;;;;;;;;;;24.79;38.44;97198.52;67980;1274;1016465;-68
2023/11/02 13:14:38;;;;;;;6.10;2.10;;;;;;;24.76;38.04;97202.34;67983;1274;1016078;-68
2023/11/02 13:17:43;;;;;;;9.40;2.10;;;;;;;24.58;38.61;97209.29;67920;1274;1016453;-67
2023/11/02 13:20:48;;;;;;;8.30;1.90;;;;;;;24.21;38.60;97207.38;67991;1274;1016481;-67
2023/11/02 13:23:53;;;;;;;5.70;1.50;;;;;;;24.10;38.44;97210.84;67994;1274;1016421;-67
2023/11/02 13:26:55;;;;;;;7.90;2.00;;;;;;;24.02;38.34;97212.08;67958;1274;1016470;-67
2023/11/02 13:29:59;;;;;;;16.60;4.10;;;;;;;24.15;38.45;97215.66;67973;1274;1016190;-67
2023/11/02 13:33:04;;;;;;;9.50;2.20;;;;;;;24.26;38.61;97214.70;67943;1274;1016497;-66
2023/11/02 13:36:07;;;;;;;6.80;1.80;;;;;;;24.45;38.13;97213.44;68023;1274;1016347;-65
2023/11/02 13:39:10;;;;;;;8.40;2.00;;;;;;;24.49;38.12;97212.58;67950;1274;1015986;-67
2023/11/02 13:42:13;;;;;;;9.20;2.30;;;;;;;24.57;38.32;97213.34;68001;1274;1019013;-65
2023/11/02 13:45:16;;;;;;;8.90;2.30;;;;;;;24.54;37.97;97213.30;68004;1274;1018910;-66
2023/11/02 13:48:18;;;;;;;8.50;2.40;;;;;;;24.50;37.97;97205.40;67991;1274;1016422;-66
2023/11/02 13:51:21;;;;;;;10.20;2.40;;;;;;;24.47;38.37;97203.77;67965;1274;1016846;-67
2023/11/02 13:54:24;;;;;;;11.40;2.80;;;;;;;24.34;37.96;97197.80;67915;1274;1016397;-66
2023/11/02 13:57:26;;;;;;;15.70;3.00;;;;;;;24.18;38.46;97197.39;67979;1274;1015879;-67